sensor_id;sensor_type;location;lat;lon;timestamp;pressure;altitude;pressure_sealevel;temperature;humidity
15914;BME280;8055;51.930;8.840;2024-03-08T00:02:03;77807.53;;;-145.72;100.00
15914;BME280;8055;51.930;8.840;2024-03-08T00:04:29;77809.59;;;-145.72;100.00
15914;BME280;8055;51.930;8.840;2024-03-08T00:06:54;77817.88;;;-145.72;100.00
15914;BME280;8055;51.930;8.840;2024-03-08T00:09:20;77815.81;;;-145.72;100.00
15914;BME280;8055;51.930;8.840;2024-03-08T00:11:46;77822.03;;;-145.72;100.00
15914;BME280;8055;51.930;8.840;2024-03-08T00:14:12;77822.03;;;-145.72;100.00
15914;BME280;8055;51.930;8.840;2024-03-08T00:16:37;77822.03;;;-145.72;100.00
15914;BME280;8055;51.930;8.840;2024-03-08T00:19:03;77819.94;;;-145.72;100.00
15914;BME280;8055;51.930;8.840;2024-03-08T00:21:29;77824.09;;;-145.72;100.00
15914;BME280;8055;51.930;8.840;2024-03-08T00:23:54;77819.94;;;-145.72;100.00
15914;BME280;8055;51.930;8.840;2024-03-08T00:26:20;77826.16;;;-145.72;100.00
15914;BME280;8055;51.930;8.840;2024-03-08T00:28:48;77826.16;;;-145.72;100.00
15914;BME280;8055;51.930;8.840;2024-03-08T00:31:14;77834.44;;;-145.72;100.00
15914;BME280;8055;51.930;8.840;2024-03-08T00:33:39;77836.50;;;-145.72;100.00
15914;BME280;8055;51.930;8.840;2024-03-08T00:36:05;77828.22;;;-145.72;100.00
15914;BME280;8055;51.930;8.840;2024-03-08T00:38:30;77828.22;;;-145.72;100.00
15914;BME280;8055;51.930;8.840;2024-03-08T00:40:56;77817.88;;;-145.72;100.00
15914;BME280;8055;51.930;8.840;2024-03-08T00:43:22;77824.09;;;-145.72;100.00
15914;BME280;8055;51.930;8.840;2024-03-08T00:45:47;77819.94;;;-145.72;100.00
15914;BME280;8055;51.930;8.840;2024-03-08T00:48:12;77826.16;;;-145.72;100.00
15914;BME280;8055;51.930;8.840;2024-03-08T00:50:38;77836.50;;;-145.72;100.00
15914;BME280;8055;51.930;8.840;2024-03-08T00:53:03;77840.66;;;-145.72;100.00
15914;BME280;8055;51.930;8.840;2024-03-08T00:55:29;77838.59;;;-145.72;100.00
15914;BME280;8055;51.930;8.840;2024-03-08T00:57:55;77842.72;;;-145.72;100.00
15914;BME280;8055;51.930;8.840;2024-03-08T01:00:20;77853.06;;;-145.72;100.00
15914;BME280;8055;51.930;8.840;2024-03-08T01:02:46;77844.78;;;-145.72;100.00
15914;BME280;8055;51.930;8.840;2024-03-08T01:05:12;77855.16;;;-145.72;100.00
15914;BME280;8055;51.930;8.840;2024-03-08T01:07:38;77848.94;;;-145.72;100.00
15914;BME280;8055;51.930;8.840;2024-03-08T01:10:04;77844.78;;;-145.72;100.00
15914;BME280;8055;51.930;8.840;2024-03-08T01:12:29;77853.06;;;-145.72;100.00
15914;BME280;8055;51.930;8.840;2024-03-08T01:14:55;77842.72;;;-145.72;100.00
15914;BME280;8055;51.930;8.840;2024-03-08T01:17:21;77840.66;;;-145.72;100.00
15914;BME280;8055;51.930;8.840;2024-03-08T01:19:47;77838.59;;;-145.72;100.00
15914;BME280;8055;51.930;8.840;2024-03-08T01:22:12;77830.31;;;-145.72;100.00
15914;BME280;8055;51.930;8.840;2024-03-08T01:24:38;77840.66;;;-145.72;100.00
15914;BME280;8055;51.930;8.840;2024-03-08T01:27:03;77838.59;;;-145.72;100.00
15914;BME280;8055;51.930;8.840;2024-03-08T01:29:29;77840.66;;;-145.72;100.00
15914;BME280;8055;51.930;8.840;2024-03-08T01:31:55;77836.50;;;-145.72;100.00
15914;BME280;8055;51.930;8.840;2024-03-08T01:34:21;77826.16;;;-145.72;100.00
15914;BME280;8055;51.930;8.840;2024-03-08T01:36:48;77834.44;;;-145.72;100.00
15914;BME280;8055;51.930;8.840;2024-03-08T01:39:13;77832.38;;;-145.72;100.00
15914;BME280;8055;51.930;8.840;2024-03-08T01:41:39;77832.38;;;-145.72;100.00
15914;BME280;8055;51.930;8.840;2024-03-08T01:44:05;77838.59;;;-145.72;100.00
15914;BME280;8055;51.930;8.840;2024-03-08T01:46:33;77836.50;;;-145.72;100.00
15914;BME280;8055;51.930;8.840;2024-03-08T01:48:59;77840.66;;;-145.72;100.00
15914;BME280;8055;51.930;8.840;2024-03-08T01:51:29;77836.50;;;-145.72;100.00
15914;BME280;8055;51.930;8.840;2024-03-08T01:53:56;77832.38;;;-145.72;100.00
15914;BME280;8055;51.930;8.840;2024-03-08T01:56:24;77840.66;;;-145.72;100.00
15914;BME280;8055;51.930;8.840;2024-03-08T01:58:50;77842.72;;;-145.72;100.00
15914;BME280;8055;51.930;8.840;2024-03-08T02:01:16;77844.78;;;-145.72;100.00
15914;BME280;8055;51.930;8.840;2024-03-08T02:03:41;77842.72;;;-145.72;100.00
15914;BME280;8055;51.930;8.840;2024-03-08T02:06:11;77846.88;;;-145.72;100.00
15914;BME280;8055;51.930;8.840;2024-03-08T02:08:36;77848.94;;;-145.72;100.00
15914;BME280;8055;51.930;8.840;2024-03-08T02:11:02;77855.16;;;-145.72;100.00
15914;BME280;8055;51.930;8.840;2024-03-08T02:13:29;77848.94;;;-145.72;100.00
15914;BME280;8055;51.930;8.840;2024-03-08T02:15:59;77851.00;;;-145.72;100.00
15914;BME280;8055;51.930;8.840;2024-03-08T02:18:25;77851.00;;;-145.72;100.00
15914;BME280;8055;51.930;8.840;2024-03-08T02:20:51;77846.88;;;-145.72;100.00
15914;BME280;8055;51.930;8.840;2024-03-08T02:23:20;77848.94;;;-145.72;100.00
15914;BME280;8055;51.930;8.840;2024-03-08T02:25:47;77848.94;;;-145.72;100.00
15914;BME280;8055;51.930;8.840;2024-03-08T02:28:13;77846.88;;;-145.72;100.00
15914;BME280;8055;51.930;8.840;2024-03-08T02:30:39;77853.06;;;-145.72;100.00
15914;BME280;8055;51.930;8.840;2024-03-08T02:33:07;77853.06;;;-145.72;100.00
15914;BME280;8055;51.930;8.840;2024-03-08T02:35:34;77846.88;;;-145.72;100.00
15914;BME280;8055;51.930;8.840;2024-03-08T02:38:00;77840.66;;;-145.72;100.00
15914;BME280;8055;51.930;8.840;2024-03-08T02:40:26;77840.66;;;-145.72;100.00
15914;BME280;8055;51.930;8.840;2024-03-08T02:42:51;77826.16;;;-145.72;100.00
15914;BME280;8055;51.930;8.840;2024-03-08T02:45:17;77830.31;;;-145.72;100.00
15914;BME280;8055;51.930;8.840;2024-03-08T02:47:42;77824.09;;;-145.72;100.00
15914;BME280;8055;51.930;8.840;2024-03-08T02:50:08;77832.38;;;-145.72;100.00
15914;BME280;8055;51.930;8.840;2024-03-08T02:52:34;77828.22;;;-145.72;100.00
15914;BME280;8055;51.930;8.840;2024-03-08T02:55:01;77853.06;;;-145.72;100.00
15914;BME280;8055;51.930;8.840;2024-03-08T02:57:26;77853.06;;;-145.72;100.00
15914;BME280;8055;51.930;8.840;2024-03-08T02:59:53;77865.50;;;-145.72;100.00
15914;BME280;8055;51.930;8.840;2024-03-08T03:02:19;77857.22;;;-145.72;100.00
15914;BME280;8055;51.930;8.840;2024-03-08T03:04:44;77848.94;;;-145.72;100.00
15914;BME280;8055;51.930;8.840;2024-03-08T03:07:09;77846.88;;;-145.72;100.00
15914;BME280;8055;51.930;8.840;2024-03-08T03:09:36;77844.78;;;-145.72;100.00
15914;BME280;8055;51.930;8.840;2024-03-08T03:12:01;77840.66;;;-145.72;100.00
15914;BME280;8055;51.930;8.840;2024-03-08T03:14:27;77824.09;;;-145.72;100.00
15914;BME280;8055;51.930;8.840;2024-03-08T03:16:53;77824.09;;;-145.72;100.00
15914;BME280;8055;51.930;8.840;2024-03-08T03:19:19;77824.09;;;-145.72;100.00
15914;BME280;8055;51.930;8.840;2024-03-08T03:21:45;77817.88;;;-145.72;100.00
15914;BME280;8055;51.930;8.840;2024-03-08T03:24:11;77813.75;;;-145.72;100.00
15914;BME280;8055;51.930;8.840;2024-03-08T03:26:37;77809.59;;;-145.72;100.00
15914;BME280;8055;51.930;8.840;2024-03-08T03:29:05;77805.47;;;-145.72;100.00
15914;BME280;8055;51.930;8.840;2024-03-08T03:31:31;77805.47;;;-145.72;100.00
15914;BME280;8055;51.930;8.840;2024-03-08T03:33:57;77807.53;;;-145.72;100.00
15914;BME280;8055;51.930;8.840;2024-03-08T03:36:27;77803.38;;;-145.72;100.00
15914;BME280;8055;51.930;8.840;2024-03-08T03:38:56;77811.66;;;-145.72;100.00
15914;BME280;8055;51.930;8.840;2024-03-08T03:41:50;77803.38;;;-145.72;100.00
15914;BME280;8055;51.930;8.840;2024-03-08T03:44:17;77801.31;;;-145.72;100.00
15914;BME280;8055;51.930;8.840;2024-03-08T03:46:43;77790.97;;;-145.72;100.00
15914;BME280;8055;51.930;8.840;2024-03-08T03:49:12;77790.97;;;-145.72;100.00
15914;BME280;8055;51.930;8.840;2024-03-08T03:51:37;77790.97;;;-145.72;100.00
15914;BME280;8055;51.930;8.840;2024-03-08T03:54:03;77782.69;;;-145.72;100.00
15914;BME280;8055;51.930;8.840;2024-03-08T03:56:29;77780.63;;;-145.72;100.00
15914;BME280;8055;51.930;8.840;2024-03-08T03:58:55;77774.41;;;-145.72;100.00
15914;BME280;8055;51.930;8.840;2024-03-08T04:01:21;77772.34;;;-145.72;100.00
15914;BME280;8055;51.930;8.840;2024-03-08T04:03:47;77768.19;;;-145.72;100.00
15914;BME280;8055;51.930;8.840;2024-03-08T04:06:12;77770.25;;;-145.72;100.00
15914;BME280;8055;51.930;8.840;2024-03-08T04:08:38;77759.91;;;-145.72;100.00
15914;BME280;8055;51.930;8.840;2024-03-08T04:11:03;77761.97;;;-145.72;100.00
15914;BME280;8055;51.930;8.840;2024-03-08T04:13:28;77757.84;;;-145.72;100.00
15914;BME280;8055;51.930;8.840;2024-03-08T04:15:54;77761.97;;;-145.72;100.00
15914;BME280;8055;51.930;8.840;2024-03-08T04:18:19;77759.91;;;-145.72;100.00
15914;BME280;8055;51.930;8.840;2024-03-08T04:20:45;77759.91;;;-145.72;100.00
15914;BME280;8055;51.930;8.840;2024-03-08T04:23:10;77761.97;;;-145.72;100.00
15914;BME280;8055;51.930;8.840;2024-03-08T04:25:36;77768.19;;;-145.72;100.00
15914;BME280;8055;51.930;8.840;2024-03-08T04:28:01;77778.56;;;-145.72;100.00
15914;BME280;8055;51.930;8.840;2024-03-08T04:30:26;77786.81;;;-145.72;100.00
15914;BME280;8055;51.930;8.840;2024-03-08T04:32:53;77786.81;;;-145.72;100.00
15914;BME280;8055;51.930;8.840;2024-03-08T04:35:19;77790.97;;;-145.72;100.00
15914;BME280;8055;51.930;8.840;2024-03-08T04:37:46;77788.91;;;-145.72;100.00
15914;BME280;8055;51.930;8.840;2024-03-08T04:40:11;77795.09;;;-145.72;100.00
15914;BME280;8055;51.930;8.840;2024-03-08T04:42:37;77799.25;;;-145.72;100.00
15914;BME280;8055;51.930;8.840;2024-03-08T04:45:03;77799.25;;;-145.72;100.00
15914;BME280;8055;51.930;8.840;2024-03-08T04:47:29;77795.09;;;-145.72;100.00
15914;BME280;8055;51.930;8.840;2024-03-08T04:49:54;77801.31;;;-145.72;100.00
15914;BME280;8055;51.930;8.840;2024-03-08T04:52:21;77807.53;;;-145.72;100.00
15914;BME280;8055;51.930;8.840;2024-03-08T04:54:47;77803.38;;;-145.72;100.00
15914;BME280;8055;51.930;8.840;2024-03-08T04:57:12;77805.47;;;-145.72;100.00
15914;BME280;8055;51.930;8.840;2024-03-08T04:59:38;77805.47;;;-145.72;100.00
15914;BME280;8055;51.930;8.840;2024-03-08T05:02:03;77809.59;;;-145.72;100.00
15914;BME280;8055;51.930;8.840;2024-03-08T05:04:29;77807.53;;;-145.72;100.00
15914;BME280;8055;51.930;8.840;2024-03-08T05:06:55;77807.53;;;-145.72;100.00
15914;BME280;8055;51.930;8.840;2024-03-08T05:09:20;77815.81;;;-145.72;100.00
15914;BME280;8055;51.930;8.840;2024-03-08T05:11:47;77824.09;;;-145.72;100.00
15914;BME280;8055;51.930;8.840;2024-03-08T05:14:13;77824.09;;;-145.72;100.00
15914;BME280;8055;51.930;8.840;2024-03-08T05:16:45;77828.22;;;-145.72;100.00
15914;BME280;8055;51.930;8.840;2024-03-08T05:19:14;77830.31;;;-145.72;100.00
15914;BME280;8055;51.930;8.840;2024-03-08T05:21:42;77840.66;;;-145.72;100.00
15914;BME280;8055;51.930;8.840;2024-03-08T05:24:08;77834.44;;;-145.72;100.00
15914;BME280;8055;51.930;8.840;2024-03-08T05:26:35;77828.22;;;-145.72;100.00
15914;BME280;8055;51.930;8.840;2024-03-08T05:29:00;77836.50;;;-145.72;100.00
15914;BME280;8055;51.930;8.840;2024-03-08T05:31:26;77853.06;;;-145.72;100.00
15914;BME280;8055;51.930;8.840;2024-03-08T05:33:51;77836.50;;;-145.72;100.00
15914;BME280;8055;51.930;8.840;2024-03-08T05:36:19;77836.50;;;-145.72;100.00
15914;BME280;8055;51.930;8.840;2024-03-08T05:38:45;77834.44;;;-145.72;100.00
15914;BME280;8055;51.930;8.840;2024-03-08T05:41:10;77830.31;;;-145.72;100.00
15914;BME280;8055;51.930;8.840;2024-03-08T05:43:40;77838.59;;;-145.72;100.00
15914;BME280;8055;51.930;8.840;2024-03-08T05:46:05;77824.09;;;-145.72;100.00
15914;BME280;8055;51.930;8.840;2024-03-08T05:48:31;77830.31;;;-145.72;100.00
15914;BME280;8055;51.930;8.840;2024-03-08T05:51:02;77824.09;;;-145.72;100.00
15914;BME280;8055;51.930;8.840;2024-03-08T05:53:27;77819.94;;;-145.72;100.00
15914;BME280;8055;51.930;8.840;2024-03-08T05:55:55;77813.75;;;-145.72;100.00
15914;BME280;8055;51.930;8.840;2024-03-08T05:58:21;77809.59;;;-145.72;100.00
15914;BME280;8055;51.930;8.840;2024-03-08T06:00:46;77799.25;;;-145.72;100.00
15914;BME280;8055;51.930;8.840;2024-03-08T06:03:12;77788.91;;;-145.72;100.00
15914;BME280;8055;51.930;8.840;2024-03-08T06:05:37;77774.41;;;-145.72;100.00
15914;BME280;8055;51.930;8.840;2024-03-08T06:08:05;77766.13;;;-145.72;100.00
15914;BME280;8055;51.930;8.840;2024-03-08T06:10:33;77761.97;;;-145.72;100.00
15914;BME280;8055;51.930;8.840;2024-03-08T06:12:58;77751.63;;;-145.72;100.00
15914;BME280;8055;51.930;8.840;2024-03-08T06:15:25;77741.28;;;-145.72;100.00
15914;BME280;8055;51.930;8.840;2024-03-08T06:17:50;77730.94;;;-145.72;100.00
15914;BME280;8055;51.930;8.840;2024-03-08T06:20:18;77722.66;;;-145.72;100.00
15914;BME280;8055;51.930;8.840;2024-03-08T06:22:43;77724.72;;;-145.72;100.00
15914;BME280;8055;51.930;8.840;2024-03-08T06:25:10;77716.44;;;-145.72;100.00
15914;BME280;8055;51.930;8.840;2024-03-08T06:27:40;77710.22;;;-145.72;100.00
15914;BME280;8055;51.930;8.840;2024-03-08T06:30:06;77701.94;;;-145.72;100.00
15914;BME280;8055;51.930;8.840;2024-03-08T06:32:32;77695.75;;;-145.72;100.00
15914;BME280;8055;51.930;8.840;2024-03-08T06:35:03;77691.59;;;-145.72;100.00
15914;BME280;8055;51.930;8.840;2024-03-08T06:37:34;77687.47;;;-145.72;100.00
15914;BME280;8055;51.930;8.840;2024-03-08T06:40:00;77683.31;;;-145.72;100.00
15914;BME280;8055;51.930;8.840;2024-03-08T06:42:27;77666.75;;;-145.72;100.00
15914;BME280;8055;51.930;8.840;2024-03-08T06:44:53;77660.53;;;-145.72;100.00
15914;BME280;8055;51.930;8.840;2024-03-08T06:47:22;77652.25;;;-145.72;100.00
15914;BME280;8055;51.930;8.840;2024-03-08T06:49:51;77646.06;;;-145.72;100.00
15914;BME280;8055;51.930;8.840;2024-03-08T06:52:17;77631.56;;;-145.72;100.00
15914;BME280;8055;51.930;8.840;2024-03-08T06:54:42;77627.41;;;-145.72;100.00
15914;BME280;8055;51.930;8.840;2024-03-08T06:57:08;77619.13;;;-145.72;100.00
15914;BME280;8055;51.930;8.840;2024-03-08T06:59:35;77612.94;;;-145.72;100.00
15914;BME280;8055;51.930;8.840;2024-03-08T07:02:01;77606.72;;;-145.72;100.00
15914;BME280;8055;51.930;8.840;2024-03-08T07:04:27;77594.31;;;-145.72;100.00
15914;BME280;8055;51.930;8.840;2024-03-08T07:06:55;77590.16;;;-145.72;100.00
15914;BME280;8055;51.930;8.840;2024-03-08T07:09:21;77575.66;;;-145.72;100.00
15914;BME280;8055;51.930;8.840;2024-03-08T07:11:46;77567.38;;;-145.72;100.00
15914;BME280;8055;51.930;8.840;2024-03-08T07:14:12;77563.25;;;-145.72;100.00
15914;BME280;8055;51.930;8.840;2024-03-08T07:16:37;77554.97;;;-145.72;100.00
15914;BME280;8055;51.930;8.840;2024-03-08T07:19:05;77546.69;;;-145.72;100.00
15914;BME280;8055;51.930;8.840;2024-03-08T07:21:31;77544.63;;;-145.72;100.00
15914;BME280;8055;51.930;8.840;2024-03-08T07:23:56;77536.34;;;-145.72;100.00
15914;BME280;8055;51.930;8.840;2024-03-08T07:26:24;77528.06;;;-145.72;100.00
15914;BME280;8055;51.930;8.840;2024-03-08T07:28:50;77521.84;;;-145.72;100.00
15914;BME280;8055;51.930;8.840;2024-03-08T07:31:15;77511.50;;;-145.72;100.00
15914;BME280;8055;51.930;8.840;2024-03-08T07:33:43;77499.06;;;-145.72;100.00
15914;BME280;8055;51.930;8.840;2024-03-08T07:36:09;77497.00;;;-145.72;100.00
15914;BME280;8055;51.930;8.840;2024-03-08T07:38:34;77492.88;;;-145.72;100.00
15914;BME280;8055;51.930;8.840;2024-03-08T07:41:00;77484.59;;;-145.72;100.00
15914;BME280;8055;51.930;8.840;2024-03-08T07:43:25;77476.31;;;-145.72;100.00
15914;BME280;8055;51.930;8.840;2024-03-08T07:45:51;77472.16;;;-145.72;100.00
15914;BME280;8055;51.930;8.840;2024-03-08T07:48:18;77465.94;;;-145.72;100.00
15914;BME280;8055;51.930;8.840;2024-03-08T07:50:43;77451.47;;;-145.72;100.00
15914;BME280;8055;51.930;8.840;2024-03-08T07:53:09;77434.91;;;-145.72;100.00
15914;BME280;8055;51.930;8.840;2024-03-08T07:55:35;77428.69;;;-145.72;100.00
15914;BME280;8055;51.930;8.840;2024-03-08T07:58:03;77418.34;;;-145.72;100.00
15914;BME280;8055;51.930;8.840;2024-03-08T08:00:30;77405.91;;;-145.72;100.00
15914;BME280;8055;51.930;8.840;2024-03-08T08:02:56;77393.50;;;-145.72;100.00
15914;BME280;8055;51.930;8.840;2024-03-08T08:05:22;77381.06;;;-145.72;100.00
15914;BME280;8055;51.930;8.840;2024-03-08T08:07:47;77368.66;;;-145.72;100.00
15914;BME280;8055;51.930;8.840;2024-03-08T08:10:13;77360.38;;;-145.72;100.00
15914;BME280;8055;51.930;8.840;2024-03-08T08:12:48;77347.94;;;-145.72;100.00
15914;BME280;8055;51.930;8.840;2024-03-08T08:15:14;77341.75;;;-145.72;100.00
15914;BME280;8055;51.930;8.840;2024-03-08T08:17:41;77321.03;;;-145.72;100.00
15914;BME280;8055;51.930;8.840;2024-03-08T08:20:08;77314.84;;;-145.72;100.00
15914;BME280;8055;51.930;8.840;2024-03-08T08:22:33;77306.56;;;-145.72;100.00
15914;BME280;8055;51.930;8.840;2024-03-08T08:24:58;77294.13;;;-145.72;100.00
15914;BME280;8055;51.930;8.840;2024-03-08T08:27:24;77285.84;;;-145.72;100.00
15914;BME280;8055;51.930;8.840;2024-03-08T08:29:51;77273.44;;;-145.72;100.00
15914;BME280;8055;51.930;8.840;2024-03-08T08:32:16;77258.94;;;-145.72;100.00
15914;BME280;8055;51.930;8.840;2024-03-08T08:34:43;77248.59;;;-145.72;100.00
15914;BME280;8055;51.930;8.840;2024-03-08T08:37:09;77234.09;;;-145.72;100.00
15914;BME280;8055;51.930;8.840;2024-03-08T08:39:35;77229.97;;;-145.72;100.00
15914;BME280;8055;51.930;8.840;2024-03-08T08:42:00;77225.81;;;-145.72;100.00
15914;BME280;8055;51.930;8.840;2024-03-08T08:44:25;77207.19;;;-145.72;100.00
15914;BME280;8055;51.930;8.840;2024-03-08T08:46:52;77192.72;;;-145.72;100.00
15914;BME280;8055;51.930;8.840;2024-03-08T08:49:18;77188.56;;;-145.72;100.00
15914;BME280;8055;51.930;8.840;2024-03-08T08:51:52;77169.94;;;-145.72;100.00
15914;BME280;8055;51.930;8.840;2024-03-08T08:54:17;77145.09;;;-145.72;100.00
15914;BME280;8055;51.930;8.840;2024-03-08T08:56:43;77147.16;;;-145.72;98.80
15914;BME280;8055;51.930;8.840;2024-03-08T08:59:13;77132.69;;;-145.72;95.70
15914;BME280;8055;51.930;8.840;2024-03-08T09:01:44;77128.53;;;-145.72;95.34
15914;BME280;8055;51.930;8.840;2024-03-08T09:04:12;77124.41;;;-145.72;96.09
15914;BME280;8055;51.930;8.840;2024-03-08T09:06:38;77101.63;;;-145.72;97.31
15914;BME280;8055;51.930;8.840;2024-03-08T09:09:06;77087.13;;;-145.72;96.45
15914;BME280;8055;51.930;8.840;2024-03-08T09:11:34;77072.66;;;-145.72;97.95
15914;BME280;8055;51.930;8.840;2024-03-08T09:13:59;77049.88;;;-145.72;97.26
15914;BME280;8055;51.930;8.840;2024-03-08T09:16:27;77035.38;;;-145.72;97.15
15914;BME280;8055;51.930;8.840;2024-03-08T09:18:52;77016.75;;;-145.72;96.52
15914;BME280;8055;51.930;8.840;2024-03-08T09:21:17;76998.13;;;-145.72;94.85
15914;BME280;8055;51.930;8.840;2024-03-08T09:23:43;76989.84;;;-145.72;92.84
15914;BME280;8055;51.930;8.840;2024-03-08T09:26:10;76977.44;;;-145.72;91.74
15914;BME280;8055;51.930;8.840;2024-03-08T09:28:38;76960.88;;;-145.72;91.83
15914;BME280;8055;51.930;8.840;2024-03-08T09:31:04;76954.66;;;-145.72;89.89
15914;BME280;8055;51.930;8.840;2024-03-08T09:33:30;76940.19;;;-145.72;88.85
15914;BME280;8055;51.930;8.840;2024-03-08T09:35:56;76917.41;;;-145.72;88.59
15914;BME280;8055;51.930;8.840;2024-03-08T09:38:23;76907.06;;;-145.72;87.87
15914;BME280;8055;51.930;8.840;2024-03-08T09:40:50;76888.44;;;-145.72;89.34
15914;BME280;8055;51.930;8.840;2024-03-08T09:43:15;76876.00;;;-145.72;88.05
15914;BME280;8055;51.930;8.840;2024-03-08T09:45:42;76863.59;;;-145.72;86.56
15914;BME280;8055;51.930;8.840;2024-03-08T09:48:11;76832.53;;;-145.72;88.32
15914;BME280;8055;51.930;8.840;2024-03-08T09:50:42;76826.34;;;-145.72;85.53
15914;BME280;8055;51.930;8.840;2024-03-08T09:53:08;76795.28;;;-145.72;86.15
15914;BME280;8055;51.930;8.840;2024-03-08T09:55:38;76780.81;;;-145.72;86.13
15914;BME280;8055;51.930;8.840;2024-03-08T09:58:08;76770.44;;;-145.72;83.27
15914;BME280;8055;51.930;8.840;2024-03-08T10:00:43;76755.97;;;-145.72;85.26
15914;BME280;8055;51.930;8.840;2024-03-08T10:03:08;76737.34;;;-145.72;84.58
15914;BME280;8055;51.930;8.840;2024-03-08T10:05:34;76727.00;;;-145.72;82.71
15914;BME280;8055;51.930;8.840;2024-03-08T10:07:59;76712.50;;;-145.72;81.18
15914;BME280;8055;51.930;8.840;2024-03-08T10:10:24;76698.00;;;-145.72;80.36
15914;BME280;8055;51.930;8.840;2024-03-08T10:12:50;76698.00;;;-145.72;79.03
15914;BME280;8055;51.930;8.840;2024-03-08T10:15:16;76689.72;;;-145.72;77.84
15914;BME280;8055;51.930;8.840;2024-03-08T10:17:42;76679.38;;;-145.72;79.75
15914;BME280;8055;51.930;8.840;2024-03-08T10:20:16;76669.03;;;-145.72;80.23
15914;BME280;8055;51.930;8.840;2024-03-08T10:22:42;76648.34;;;-145.72;79.29
15914;BME280;8055;51.930;8.840;2024-03-08T10:25:12;76631.78;;;-145.72;80.73
15914;BME280;8055;51.930;8.840;2024-03-08T10:27:38;76594.53;;;-145.72;80.51
15914;BME280;8055;51.930;8.840;2024-03-08T10:30:06;76594.53;;;-145.72;79.56
15914;BME280;8055;51.930;8.840;2024-03-08T10:32:35;76584.19;;;-145.72;79.33
15914;BME280;8055;51.930;8.840;2024-03-08T10:35:00;76555.22;;;-145.72;77.76
15914;BME280;8055;51.930;8.840;2024-03-08T10:37:26;76561.41;;;-145.72;77.91
15914;BME280;8055;51.930;8.840;2024-03-08T10:40:02;76528.31;;;-145.72;79.09
15914;BME280;8055;51.930;8.840;2024-03-08T10:42:39;76524.16;;;-145.72;75.56
15914;BME280;8055;51.930;8.840;2024-03-08T10:45:35;76515.88;;;-145.72;74.65
15914;BME280;8055;51.930;8.840;2024-03-08T10:50:43;76503.47;;;-145.72;75.57
15914;BME280;8055;51.930;8.840;2024-03-08T10:53:13;76486.91;;;-145.72;75.43
15914;BME280;8055;51.930;8.840;2024-03-08T10:55:40;76474.50;;;-145.72;75.00
15914;BME280;8055;51.930;8.840;2024-03-08T10:58:08;76457.94;;;-145.72;72.77
15914;BME280;8055;51.930;8.840;2024-03-08T11:00:35;76433.09;;;-145.72;76.99
15914;BME280;8055;51.930;8.840;2024-03-08T11:03:00;76426.91;;;-145.72;72.55
15914;BME280;8055;51.930;8.840;2024-03-08T11:05:37;76422.75;;;-145.72;73.91
15914;BME280;8055;51.930;8.840;2024-03-08T11:08:16;76406.19;;;-145.72;69.58
15914;BME280;8055;51.930;8.840;2024-03-08T11:10:50;76381.34;;;-145.72;72.76
15914;BME280;8055;51.930;8.840;2024-03-08T11:16:02;76366.88;;;-145.72;69.84
15914;BME280;8055;51.930;8.840;2024-03-08T11:18:33;76362.72;;;-145.72;71.42
15914;BME280;8055;51.930;8.840;2024-03-08T11:21:02;76337.91;;;-145.72;71.97
15914;BME280;8055;51.930;8.840;2024-03-08T11:23:30;76308.94;;;-145.72;71.71
15914;BME280;8055;51.930;8.840;2024-03-08T11:25:56;76313.06;;;-145.72;66.27
15914;BME280;8055;51.930;8.840;2024-03-08T11:28:25;76290.31;;;-145.72;68.03
15914;BME280;8055;51.930;8.840;2024-03-08T11:33:24;76277.88;;;-145.72;67.08
15914;BME280;8055;51.930;8.840;2024-03-08T11:35:50;76263.41;;;-145.72;67.45
15914;BME280;8055;51.930;8.840;2024-03-08T11:38:16;76244.78;;;-145.72;68.42
15914;BME280;8055;51.930;8.840;2024-03-08T11:40:42;76242.72;;;-145.72;64.76
15914;BME280;8055;51.930;8.840;2024-03-08T11:43:08;76232.34;;;-145.72;63.42
15914;BME280;8055;51.930;8.840;2024-03-08T11:45:36;76226.16;;;-145.72;62.44
15914;BME280;8055;51.930;8.840;2024-03-08T11:48:04;76211.66;;;-145.72;61.93
15914;BME280;8055;51.930;8.840;2024-03-08T11:50:30;76205.44;;;-145.72;61.09
15914;BME280;8055;51.930;8.840;2024-03-08T11:53:01;76190.97;;;-145.72;63.31
15914;BME280;8055;51.930;8.840;2024-03-08T11:55:28;76182.69;;;-145.72;60.38
15914;BME280;8055;51.930;8.840;2024-03-08T11:58:04;76182.69;;;-145.72;60.83
15914;BME280;8055;51.930;8.840;2024-03-08T12:00:29;76176.47;;;-145.72;58.13
15914;BME280;8055;51.930;8.840;2024-03-08T12:03:05;76157.84;;;-145.72;60.93
15914;BME280;8055;51.930;8.840;2024-03-08T12:05:31;76157.84;;;-145.72;61.66
15914;BME280;8055;51.930;8.840;2024-03-08T12:07:58;76151.66;;;-145.72;59.07
15914;BME280;8055;51.930;8.840;2024-03-08T12:10:24;76147.50;;;-145.72;59.30
15914;BME280;8055;51.930;8.840;2024-03-08T12:12:54;76133.03;;;-145.72;60.38
15914;BME280;8055;51.930;8.840;2024-03-08T12:15:22;76122.69;;;-145.72;58.97
15914;BME280;8055;51.930;8.840;2024-03-08T12:17:52;76097.84;;;-145.72;59.83
15914;BME280;8055;51.930;8.840;2024-03-08T12:20:19;76085.44;;;-145.72;58.21
15914;BME280;8055;51.930;8.840;2024-03-08T12:22:47;76060.59;;;-145.72;58.83
15914;BME280;8055;51.930;8.840;2024-03-08T12:25:12;76050.25;;;-145.72;61.41
15914;BME280;8055;51.930;8.840;2024-03-08T12:27:43;76021.28;;;-145.72;58.49
15914;BME280;8055;51.930;8.840;2024-03-08T12:30:27;76019.22;;;-145.72;58.03
15914;BME280;8055;51.930;8.840;2024-03-08T12:33:00;76004.72;;;-145.72;56.57
15914;BME280;8055;51.930;8.840;2024-03-08T12:35:29;75992.31;;;-145.72;58.80
15914;BME280;8055;51.930;8.840;2024-03-08T12:37:56;75986.09;;;-145.72;56.22
15914;BME280;8055;51.930;8.840;2024-03-08T12:40:29;75973.69;;;-145.72;57.54
15914;BME280;8055;51.930;8.840;2024-03-08T12:42:57;75984.03;;;-145.72;55.73
15914;BME280;8055;51.930;8.840;2024-03-08T12:45:23;75979.88;;;-145.72;54.75
15914;BME280;8055;51.930;8.840;2024-03-08T12:47:52;75961.25;;;-145.72;56.02
15914;BME280;8055;51.930;8.840;2024-03-08T12:50:18;75944.72;;;-145.72;57.44